createdAt,value
2023-04-11T00:01:49.813Z,7.60
2023-04-11T00:04:17.634Z,8.43
2023-04-11T00:06:45.120Z,7.53
2023-04-11T00:09:12.390Z,8.25
2023-04-11T00:11:39.540Z,7.80
2023-04-11T00:14:08.755Z,8.32
2023-04-11T00:16:36.145Z,7.78
2023-04-11T00:19:03.636Z,8.80
2023-04-11T00:21:30.827Z,7.80
2023-04-11T00:23:59.090Z,7.72
2023-04-11T00:26:26.208Z,7.63
2023-04-11T00:28:53.670Z,7.85
2023-04-11T00:31:21.519Z,8.45
2023-04-11T00:33:48.741Z,8.52
2023-04-11T00:36:16.248Z,8.90
2023-04-11T00:38:44.563Z,8.38
2023-04-11T00:41:11.822Z,8.13
2023-04-11T00:43:39.125Z,8.40
2023-04-11T00:46:09.074Z,8.45
2023-04-11T00:48:36.627Z,8.57
2023-04-11T00:51:03.992Z,8.73
2023-04-11T00:53:32.785Z,8.82
2023-04-11T00:56:00.755Z,8.23
2023-04-11T00:58:29.059Z,8.32
2023-04-11T01:00:56.360Z,8.40
2023-04-11T01:03:23.698Z,8.02
2023-04-11T01:05:55.257Z,7.90
2023-04-11T01:08:22.956Z,8.30
2023-04-11T01:10:50.447Z,7.63
2023-04-11T01:13:20.639Z,8.23
2023-04-11T01:15:47.986Z,8.32
2023-04-11T01:18:15.513Z,7.85
2023-04-11T01:20:42.999Z,8.50
2023-04-11T01:23:11.479Z,8.10
2023-04-11T01:28:08.756Z,8.75
2023-04-11T01:30:35.941Z,8.82
2023-04-11T01:33:03.358Z,9.05
2023-04-11T01:35:30.916Z,9.85
2023-04-11T01:37:58.989Z,8.68
2023-04-11T01:40:27.892Z,8.80
2023-04-11T01:42:55.436Z,9.18
2023-04-11T01:45:23.719Z,9.05
2023-04-11T01:47:54.450Z,8.52
2023-04-11T01:50:22.503Z,10.15
2023-04-11T01:52:50.426Z,9.90
2023-04-11T01:55:18.091Z,9.18
2023-04-11T01:57:45.385Z,9.27
2023-04-11T02:00:14.594Z,9.45
2023-04-11T02:02:42.162Z,9.68
2023-04-11T02:05:10.906Z,9.63
2023-04-11T02:07:38.202Z,9.50
2023-04-11T02:10:07.064Z,10.38
2023-04-11T02:12:34.487Z,8.85
2023-04-11T02:15:01.709Z,9.30
2023-04-11T02:17:31.357Z,8.45
2023-04-11T02:19:58.567Z,9.35
2023-04-11T02:22:25.704Z,9.10
2023-04-11T02:24:53.160Z,8.38
2023-04-11T02:27:20.397Z,8.75
2023-04-11T02:29:47.577Z,8.32
2023-04-11T02:32:16.448Z,8.50
2023-04-11T02:34:46.188Z,9.32
2023-04-11T02:37:13.415Z,8.02
2023-04-11T02:39:40.593Z,8.40
2023-04-11T02:42:07.790Z,8.18
2023-04-11T02:44:35.018Z,8.13
2023-04-11T02:47:02.532Z,7.93
2023-04-11T02:49:30.440Z,7.97
2023-04-11T02:51:57.622Z,8.25
2023-04-11T02:54:24.848Z,8.20
2023-04-11T02:56:52.787Z,8.18
2023-04-11T02:59:19.965Z,8.43
2023-04-11T03:01:47.209Z,8.80
2023-04-11T03:04:14.822Z,7.97
2023-04-11T03:06:53.814Z,9.15
2023-04-11T03:09:21.446Z,8.77
2023-04-11T03:11:49.036Z,9.40
2023-04-11T03:14:16.772Z,8.90
2023-04-11T03:16:43.943Z,7.75
2023-04-11T03:19:12.038Z,9.45
2023-04-11T03:21:39.200Z,8.13
2023-04-11T03:24:06.972Z,8.82
2023-04-11T03:26:34.266Z,9.23
2023-04-11T03:29:08.475Z,8.25
2023-04-11T03:31:45.363Z,9.02
2023-04-11T03:34:13.330Z,9.02
2023-04-11T03:36:41.881Z,9.27
2023-04-11T03:39:09.217Z,9.02
2023-04-11T03:41:36.418Z,8.48
2023-04-11T03:44:04.852Z,7.70
2023-04-11T03:46:32.189Z,8.48
2023-04-11T03:48:59.401Z,7.72
2023-04-11T03:51:26.960Z,7.50
2023-04-11T03:54:03.793Z,8.80
2023-04-11T03:56:35.802Z,8.10
2023-04-11T03:59:03.238Z,7.40
2023-04-11T04:01:40.259Z,7.22
2023-04-11T04:04:07.871Z,8.45
2023-04-11T04:06:38.968Z,8.38
2023-04-11T04:09:07.352Z,7.88
2023-04-11T04:11:46.395Z,8.23
2023-04-11T04:14:14.743Z,7.65
2023-04-11T04:16:42.144Z,7.38
2023-04-11T04:19:09.836Z,8.38
2023-04-11T04:21:38.011Z,8.65
2023-04-11T04:24:06.018Z,7.57
2023-04-11T04:26:57.749Z,8.05
2023-04-11T04:29:48.002Z,7.85
2023-04-11T04:32:23.975Z,8.05
2023-04-11T04:34:58.712Z,7.68
2023-04-11T04:37:28.999Z,7.60
2023-04-11T04:40:15.945Z,8.38
2023-04-11T04:42:58.678Z,7.90
2023-04-11T04:45:36.647Z,8.07
2023-04-11T04:48:04.237Z,8.45
2023-04-11T04:50:32.274Z,7.82
2023-04-11T04:52:59.432Z,8.60
2023-04-11T04:55:28.885Z,7.68
2023-04-11T04:57:56.221Z,7.78
2023-04-11T05:00:23.907Z,7.88
2023-04-11T05:02:55.605Z,8.02
2023-04-11T05:05:25.868Z,7.90
2023-04-11T05:07:53.761Z,7.53
2023-04-11T05:10:21.292Z,7.35
2023-04-11T05:12:49.217Z,7.47
2023-04-11T05:15:16.560Z,7.55
2023-04-11T05:17:43.729Z,6.47
2023-04-11T05:20:13.522Z,7.07
2023-04-11T05:22:42.272Z,7.50
2023-04-11T05:25:11.552Z,7.10
2023-04-11T05:27:40.976Z,7.63
2023-04-11T05:30:10.664Z,7.68
2023-04-11T05:32:39.504Z,7.00
2023-04-11T05:35:08.027Z,7.35
2023-04-11T05:37:55.686Z,6.82
2023-04-11T05:40:22.831Z,7.22
2023-04-11T05:42:50.756Z,8.25
2023-04-11T05:45:19.376Z,7.78
2023-04-11T05:47:46.596Z,7.30
2023-04-11T05:50:15.724Z,7.55
2023-04-11T05:52:42.832Z,7.45
2023-04-11T05:55:11.088Z,8.88
2023-04-11T05:57:38.271Z,7.95
2023-04-11T06:00:12.919Z,7.78
2023-04-11T06:05:12.135Z,9.23
2023-04-11T06:07:40.411Z,8.18
2023-04-11T06:10:09.348Z,8.82
2023-04-11T06:12:36.879Z,9.13
2023-04-11T06:15:04.947Z,8.15
2023-04-11T06:17:32.117Z,8.43
2023-04-11T06:19:59.281Z,8.25
2023-04-11T06:22:26.413Z,8.15
2023-04-11T06:24:53.679Z,8.48
2023-04-11T06:27:20.860Z,8.60
2023-04-11T06:29:48.004Z,9.00
2023-04-11T06:32:15.586Z,8.38
2023-04-11T06:34:42.859Z,8.00
2023-04-11T06:37:10.465Z,7.53
2023-04-11T06:39:37.723Z,8.07
2023-04-11T06:42:04.999Z,8.63
2023-04-11T06:44:33.746Z,8.10
2023-04-11T06:47:01.432Z,9.52
2023-04-11T06:49:28.751Z,8.25
2023-04-11T06:51:56.065Z,7.65
2023-04-11T06:54:23.689Z,7.57
2023-04-11T06:56:50.932Z,8.48
2023-04-11T06:59:22.255Z,7.03
2023-04-11T07:01:50.414Z,8.63
2023-04-11T07:04:17.916Z,7.15
2023-04-11T07:06:46.071Z,7.57
2023-04-11T07:09:13.287Z,7.80
2023-04-11T07:11:41.424Z,7.10
2023-04-11T07:14:08.588Z,7.00
2023-04-11T07:16:36.055Z,7.33
2023-04-11T07:19:03.457Z,8.32
2023-04-11T07:21:32.240Z,7.63
2023-04-11T07:24:00.592Z,8.20
2023-04-11T07:26:32.613Z,7.85
2023-04-11T07:29:00.074Z,7.93
2023-04-11T07:31:27.537Z,8.13
2023-04-11T07:33:55.022Z,7.93
2023-04-11T07:36:22.577Z,8.48
2023-04-11T07:38:49.938Z,7.38
2023-04-11T07:41:17.099Z,7.35
2023-04-11T07:43:44.266Z,7.60
2023-04-11T07:46:12.398Z,8.57
2023-04-11T07:48:40.148Z,8.32
2023-04-11T07:51:07.499Z,8.07
2023-04-11T07:53:34.718Z,9.77
2023-04-11T07:56:01.895Z,7.85
2023-04-11T07:58:30.084Z,7.43
2023-04-11T08:00:58.586Z,7.07
2023-04-11T08:03:27.058Z,8.40
2023-04-11T08:05:54.449Z,8.20
2023-04-11T08:08:21.650Z,7.55
2023-04-11T08:10:50.689Z,8.50
2023-04-11T08:13:19.230Z,8.10
2023-04-11T08:15:46.636Z,8.77
2023-04-11T08:18:13.843Z,8.63
2023-04-11T08:20:41.161Z,7.68
2023-04-11T08:23:10.410Z,8.93
2023-04-11T08:25:37.651Z,9.32
2023-04-11T08:28:05.988Z,8.50
2023-04-11T08:33:00.414Z,7.38
2023-04-11T08:35:27.805Z,8.82
2023-04-11T08:37:55.032Z,8.05
2023-04-11T08:40:22.246Z,8.48
2023-04-11T08:42:49.365Z,8.85
2023-04-11T08:45:16.555Z,9.07
2023-04-11T08:47:45.835Z,9.10
2023-04-11T08:50:13.281Z,7.22
2023-04-11T08:52:42.499Z,8.32
2023-04-11T08:55:12.535Z,8.10
2023-04-11T08:57:39.630Z,6.65
2023-04-11T09:00:14.010Z,12.20
2023-04-11T09:02:58.057Z,8.25
2023-04-11T09:05:37.285Z,8.77
2023-04-11T09:08:15.436Z,7.97
2023-04-11T09:10:46.130Z,7.72
2023-04-11T09:13:22.704Z,9.02
2023-04-11T09:16:13.233Z,8.20
2023-04-11T09:18:44.314Z,8.30
2023-04-11T09:21:16.515Z,7.68
2023-04-11T09:23:44.268Z,7.97
2023-04-11T09:26:13.145Z,8.35
2023-04-11T09:28:54.792Z,7.38
2023-04-11T09:31:39.579Z,8.18
2023-04-11T09:34:06.891Z,6.95
2023-04-11T09:36:34.653Z,8.32
2023-04-11T09:39:20.351Z,7.93
2023-04-11T09:41:47.891Z,7.97
2023-04-11T09:44:15.105Z,6.55
2023-04-11T09:46:59.645Z,7.43
2023-04-11T09:49:27.732Z,8.30
2023-04-11T09:51:55.831Z,7.78
2023-04-11T09:54:23.210Z,8.00
2023-04-11T09:56:50.625Z,8.52
2023-04-11T09:59:21.288Z,7.50
2023-04-11T10:01:51.518Z,7.63
2023-04-11T10:04:20.343Z,8.10
2023-04-11T10:07:14.302Z,7.63
2023-04-11T10:09:43.617Z,6.63
2023-04-11T10:12:10.903Z,7.78
2023-04-11T10:14:38.064Z,7.30
2023-04-11T10:17:23.980Z,7.57
2023-04-11T10:19:57.536Z,6.90
2023-04-11T10:22:43.508Z,7.40
2023-04-11T10:25:22.140Z,7.65
2023-04-11T10:28:01.221Z,7.38
2023-04-11T10:30:40.801Z,6.72
2023-04-11T10:33:17.667Z,5.15
2023-04-11T10:36:10.119Z,6.22
2023-04-11T10:38:40.801Z,7.85
2023-04-11T10:41:23.201Z,7.32
2023-04-11T10:43:50.992Z,5.47
2023-04-11T10:46:26.529Z,5.60
2023-04-11T10:49:05.528Z,7.63
2023-04-11T10:51:34.158Z,7.38
2023-04-11T10:54:02.158Z,7.05
2023-04-11T10:56:54.582Z,6.55
2023-04-11T10:59:36.634Z,7.78
2023-04-11T11:02:04.107Z,7.97
2023-04-11T11:04:39.764Z,5.90
2023-04-11T11:07:14.090Z,7.10
2023-04-11T11:09:41.378Z,7.28
2023-04-11T11:12:10.531Z,7.25
2023-04-11T11:14:40.060Z,6.68
2023-04-11T11:17:09.025Z,5.50
2023-04-11T11:19:36.773Z,6.72
2023-04-11T11:22:04.707Z,7.10
2023-04-11T11:24:32.141Z,5.90
2023-04-11T11:26:59.447Z,6.38
2023-04-11T11:29:33.663Z,6.78
2023-04-11T11:32:05.349Z,6.35
2023-04-11T11:34:35.103Z,6.72
2023-04-11T11:37:06.813Z,6.95
2023-04-11T11:39:35.535Z,6.88
2023-04-11T11:42:03.432Z,6.80
2023-04-11T11:44:32.271Z,6.47
2023-04-11T11:47:12.601Z,5.43
2023-04-11T11:52:42.468Z,6.05
2023-04-11T11:55:18.685Z,5.93
2023-04-11T11:57:48.222Z,6.50
2023-04-11T12:00:24.404Z,5.82
2023-04-11T12:02:54.836Z,5.50
2023-04-11T12:05:29.963Z,5.25
2023-04-11T12:08:00.267Z,5.20
2023-04-11T12:10:42.902Z,6.10
2023-04-11T12:13:23.513Z,5.53
2023-04-11T12:15:54.581Z,4.78
2023-04-11T12:18:24.598Z,5.75
2023-04-11T12:20:52.399Z,5.60
2023-04-11T12:23:21.083Z,4.70
2023-04-11T12:25:48.434Z,5.90
2023-04-11T12:28:16.308Z,5.90
2023-04-11T12:30:43.508Z,5.68
2023-04-11T12:33:10.749Z,4.90
2023-04-11T12:35:38.145Z,5.53
2023-04-11T12:38:06.493Z,5.22
2023-04-11T12:40:33.805Z,5.93
2023-04-11T12:43:00.950Z,4.97
2023-04-11T12:45:28.164Z,5.63
2023-04-11T12:47:55.516Z,5.75
2023-04-11T12:50:23.672Z,6.05
2023-04-11T12:52:52.732Z,5.80
2023-04-11T12:55:20.046Z,5.57
2023-04-11T12:57:47.317Z,5.60
2023-04-11T13:00:15.615Z,5.10
2023-04-11T13:02:44.860Z,5.55
2023-04-11T13:05:15.290Z,5.05
2023-04-11T13:07:44.714Z,5.38
2023-04-11T13:10:13.804Z,5.80
2023-04-11T13:12:44.244Z,4.82
2023-04-11T13:15:14.297Z,4.95
2023-04-11T13:17:41.954Z,4.47
2023-04-11T13:20:11.055Z,4.60
2023-04-11T13:22:41.513Z,4.75
2023-04-11T13:25:10.627Z,4.57
2023-04-11T13:27:39.607Z,5.18
2023-04-11T13:30:09.843Z,5.72
2023-04-11T13:32:37.380Z,5.50
2023-04-11T13:35:05.807Z,5.45
2023-04-11T13:37:33.321Z,5.40
2023-04-11T13:40:00.577Z,5.70
2023-04-11T13:42:27.753Z,4.50
2023-04-11T13:44:54.877Z,5.47
2023-04-11T13:47:22.047Z,5.00
2023-04-11T13:49:49.260Z,5.30
2023-04-11T13:52:16.492Z,4.65
2023-04-11T13:54:43.747Z,5.15
2023-04-11T13:57:11.489Z,4.80
2023-04-11T13:59:38.598Z,5.13
2023-04-11T14:02:05.844Z,4.78
2023-04-11T14:04:33.313Z,4.43
2023-04-11T14:07:00.632Z,4.72
2023-04-11T14:09:27.881Z,5.10
2023-04-11T14:11:54.989Z,4.78
2023-04-11T14:14:22.192Z,4.70
2023-04-11T14:16:50.299Z,4.75
2023-04-11T14:19:17.576Z,5.45
2023-04-11T14:21:44.737Z,5.35
2023-04-11T14:24:12.147Z,5.13
2023-04-11T14:26:39.286Z,6.53
2023-04-11T14:29:06.597Z,5.25
2023-04-11T14:31:33.893Z,4.35
2023-04-11T14:34:01.160Z,4.50
2023-04-11T14:36:28.459Z,4.85
2023-04-11T14:38:55.703Z,4.45
2023-04-11T14:41:23.374Z,4.18
2023-04-11T14:43:50.671Z,4.40
2023-04-11T14:46:17.918Z,4.78
2023-04-11T14:48:45.397Z,4.45
2023-04-11T14:51:12.522Z,4.15
2023-04-11T14:53:39.674Z,5.40
2023-04-11T14:56:07.859Z,4.22
2023-04-11T15:01:02.367Z,4.22
2023-04-11T15:03:29.847Z,4.65
2023-04-11T15:05:57.203Z,4.45
2023-04-11T15:08:24.450Z,12.35
2023-04-11T15:10:54.261Z,5.30
2023-04-11T15:13:22.969Z,4.80
2023-04-11T15:15:51.308Z,4.72
2023-04-11T15:18:28.316Z,4.82
2023-04-11T15:21:01.915Z,4.47
2023-04-11T15:23:29.490Z,4.55
2023-04-11T15:26:02.976Z,4.88
2023-04-11T15:28:39.275Z,5.07
2023-04-11T15:31:09.132Z,3.83
2023-04-11T15:33:38.245Z,4.35
2023-04-11T15:36:06.585Z,4.00
2023-04-11T15:38:36.612Z,3.83
2023-04-11T15:41:04.037Z,3.70
2023-04-11T15:43:33.507Z,3.55
2023-04-11T15:46:03.634Z,3.97
2023-04-11T15:48:31.168Z,4.32
2023-04-11T15:50:58.798Z,4.30
2023-04-11T15:53:26.498Z,4.28
2023-04-11T15:55:54.068Z,3.72
2023-04-11T15:58:21.379Z,3.63
2023-04-11T16:00:48.491Z,3.65
2023-04-11T16:03:16.650Z,3.42
2023-04-11T16:05:44.981Z,3.38
2023-04-11T16:08:12.097Z,3.47
2023-04-11T16:10:39.261Z,3.47
2023-04-11T16:13:06.461Z,3.28
2023-04-11T16:15:33.620Z,3.17
2023-04-11T16:18:00.874Z,3.13
2023-04-11T16:20:28.183Z,3.42
2023-04-11T16:22:55.955Z,3.50
2023-04-11T16:25:23.237Z,3.58
2023-04-11T16:27:51.430Z,3.38
2023-04-11T16:30:18.941Z,2.72
2023-04-11T16:32:46.204Z,3.50
2023-04-11T16:35:13.439Z,3.25
2023-04-11T16:37:40.792Z,3.47
2023-04-11T16:40:11.839Z,3.40
2023-04-11T16:42:39.956Z,5.25
2023-04-11T16:47:36.202Z,3.63
2023-04-11T16:50:05.548Z,2.90
2023-04-11T16:52:32.968Z,3.13
2023-04-11T16:55:00.448Z,3.33
2023-04-11T16:57:27.934Z,2.63
2023-04-11T16:59:55.265Z,3.05
2023-04-11T17:02:22.503Z,3.38
2023-04-11T17:04:49.780Z,3.50
2023-04-11T17:07:17.270Z,3.15
2023-04-11T17:09:48.404Z,3.10
2023-04-11T17:12:16.305Z,2.78
2023-04-11T17:14:44.186Z,3.08
2023-04-11T17:17:11.464Z,3.33
2023-04-11T17:19:38.678Z,3.05
2023-04-11T17:22:05.930Z,2.47
2023-04-11T17:24:33.320Z,2.17
2023-04-11T17:27:00.473Z,2.63
2023-04-11T17:29:27.750Z,3.60
2023-04-11T17:31:54.995Z,3.58
2023-04-11T17:34:22.151Z,3.05
2023-04-11T17:36:49.316Z,3.08
2023-04-11T17:39:17.980Z,3.13
2023-04-11T17:41:46.012Z,3.20
2023-04-11T17:44:13.743Z,3.80
2023-04-11T17:46:41.228Z,3.08
2023-04-11T17:49:08.456Z,3.30
2023-04-11T17:51:38.975Z,3.20
2023-04-11T17:54:10.193Z,3.40
2023-04-11T17:56:37.316Z,5.10
2023-04-11T17:59:04.432Z,4.60
2023-04-11T18:01:32.437Z,3.30
2023-04-11T18:04:03.156Z,3.60
2023-04-11T18:06:34.069Z,4.22
2023-04-11T18:09:02.438Z,4.10
2023-04-11T18:11:29.547Z,3.67
2023-04-11T18:13:57.247Z,3.40
2023-04-11T18:16:24.619Z,3.47
2023-04-11T18:18:51.857Z,3.67
2023-04-11T18:21:21.358Z,3.30
2023-04-11T18:23:49.477Z,6.07
2023-04-11T18:26:16.675Z,4.07
2023-04-11T18:28:43.795Z,3.72
2023-04-11T18:31:11.529Z,3.30
2023-04-11T18:33:42.880Z,3.50
2023-04-11T18:36:11.820Z,2.92
2023-04-11T18:38:39.225Z,3.08
2023-04-11T18:41:07.732Z,2.67
2023-04-11T18:43:37.590Z,3.10
2023-04-11T18:46:07.871Z,2.78
2023-04-11T18:48:35.561Z,3.05
2023-04-11T18:51:04.888Z,2.42
2023-04-11T18:53:32.411Z,3.13
2023-04-11T18:56:02.951Z,2.72
2023-04-11T18:58:33.218Z,2.50
2023-04-11T19:01:12.940Z,2.35
2023-04-11T19:03:42.724Z,2.30
2023-04-11T19:06:11.151Z,2.47
2023-04-11T19:08:39.663Z,2.55
2023-04-11T19:11:06.803Z,2.70
2023-04-11T19:13:33.954Z,2.60
2023-04-11T19:16:01.578Z,2.72
2023-04-11T19:18:28.774Z,2.75
2023-04-11T19:20:56.365Z,2.50
2023-04-11T19:23:23.572Z,3.05
2023-04-11T19:25:51.557Z,3.08
2023-04-11T19:28:18.697Z,2.88
2023-04-11T19:30:46.863Z,3.05
2023-04-11T19:33:14.409Z,2.40
2023-04-11T19:35:42.058Z,2.50
2023-04-11T19:38:09.454Z,2.90
2023-04-11T19:40:36.617Z,2.60
2023-04-11T19:43:03.973Z,3.72
2023-04-11T19:45:32.449Z,2.67
2023-04-11T19:48:00.241Z,3.00
2023-04-11T19:50:27.743Z,3.13
2023-04-11T19:53:00.457Z,2.60
2023-04-11T19:55:27.865Z,3.10
2023-04-11T19:57:55.185Z,3.17
2023-04-11T20:00:22.457Z,3.75
2023-04-11T20:02:49.749Z,2.35
2023-04-11T20:05:21.583Z,3.10
2023-04-11T20:07:48.919Z,3.15
2023-04-11T20:10:17.315Z,3.03
2023-04-11T20:12:44.868Z,3.08
2023-04-11T20:15:12.540Z,2.85
2023-04-11T20:17:39.827Z,3.10
2023-04-11T20:20:08.853Z,3.00
2023-04-11T20:22:38.086Z,3.30
2023-04-11T20:25:11.734Z,3.25
2023-04-11T20:27:40.794Z,2.83
2023-04-11T20:30:12.686Z,3.50
2023-04-11T20:32:41.065Z,3.00
2023-04-11T20:35:09.881Z,3.85
2023-04-11T20:37:37.725Z,3.60
2023-04-11T20:40:07.159Z,4.13
2023-04-11T20:42:35.362Z,3.58
2023-04-11T20:45:11.438Z,3.72
2023-04-11T20:47:49.615Z,3.58
2023-04-11T20:50:17.677Z,3.55
2023-04-11T20:52:48.078Z,4.20
2023-04-11T20:55:15.603Z,3.65
2023-04-11T20:57:44.582Z,3.67
2023-04-11T21:00:13.992Z,3.30
2023-04-11T21:02:46.628Z,3.67
2023-04-11T21:05:18.078Z,3.95
2023-04-11T21:07:45.251Z,3.33
2023-04-11T21:10:13.016Z,3.80
2023-04-11T21:12:41.385Z,3.65
2023-04-11T21:17:39.204Z,4.32
2023-04-11T21:20:17.625Z,3.70
2023-04-11T21:22:49.838Z,3.78
2023-04-11T21:25:17.164Z,3.85
2023-04-11T21:27:45.820Z,3.70
2023-04-11T21:30:14.211Z,3.28
2023-04-11T21:35:11.495Z,3.88
2023-04-11T21:37:39.047Z,4.07
2023-04-11T21:40:07.388Z,3.60
2023-04-11T21:45:01.674Z,4.30
2023-04-11T21:47:28.822Z,3.55
2023-04-11T21:49:55.999Z,3.85
2023-04-11T21:52:23.256Z,3.85
2023-04-11T21:54:50.673Z,3.75
2023-04-11T21:57:17.834Z,4.03
2023-04-11T21:59:45.325Z,3.75
2023-04-11T22:02:12.716Z,4.53
2023-04-11T22:04:51.712Z,4.10
2023-04-11T22:07:31.697Z,3.88
2023-04-11T22:10:09.046Z,3.80
2023-04-11T22:12:37.009Z,4.40
2023-04-11T22:15:06.496Z,3.75
2023-04-11T22:17:34.524Z,4.15
2023-04-11T22:20:01.706Z,4.38
2023-04-11T22:22:30.140Z,4.43
2023-04-11T22:24:57.891Z,4.38
2023-04-11T22:27:26.638Z,4.75
2023-04-11T22:29:56.093Z,4.15
2023-04-11T22:32:23.969Z,4.20
2023-04-11T22:34:51.267Z,4.53
2023-04-11T22:37:18.449Z,4.50
2023-04-11T22:39:45.621Z,4.78
2023-04-11T22:42:12.767Z,5.20
2023-04-11T22:44:39.878Z,6.15
2023-04-11T22:47:15.853Z,5.57
2023-04-11T22:49:44.587Z,5.20
2023-04-11T22:52:15.429Z,5.47
2023-04-11T22:54:43.170Z,5.35
2023-04-11T22:57:10.590Z,5.63
2023-04-11T22:59:38.053Z,5.82
2023-04-11T23:02:05.525Z,7.60
2023-04-11T23:04:32.935Z,5.30
2023-04-11T23:07:00.188Z,5.32
2023-04-11T23:09:28.300Z,6.40
2023-04-11T23:11:55.520Z,5.05
2023-04-11T23:14:22.713Z,5.13
2023-04-11T23:16:49.940Z,5.05
2023-04-11T23:19:18.520Z,4.95
2023-04-11T23:21:45.810Z,5.88
2023-04-11T23:24:12.961Z,5.28
2023-04-11T23:26:40.224Z,5.55
2023-04-11T23:29:07.432Z,5.50
2023-04-11T23:31:34.738Z,5.55
2023-04-11T23:34:02.472Z,6.00
2023-04-11T23:36:29.772Z,5.95
2023-04-11T23:38:56.898Z,5.35
2023-04-11T23:41:24.119Z,5.90
2023-04-11T23:43:51.295Z,6.05
2023-04-11T23:46:18.513Z,6.30
2023-04-11T23:48:47.121Z,6.75
2023-04-11T23:51:15.925Z,5.82
2023-04-11T23:53:43.721Z,6.00
2023-04-11T23:56:10.959Z,5.88
2023-04-11T23:58:38.279Z,6.93
